Time;durP1;ratioP1;P1;durP2;ratioP2;P2;SDS_P1;SDS_P2;PMS_P1;PMS_P2;Temp;Humidity;BMP_temperature;BMP_pressure;BME280_temperature;BME280_humidity;BME280_pressure;Samples;Min_cycle;Max_cycle;Signal;HPM_P1;HPM_P2
2024/01/01 00:01:17;;;;;;;19.40;14.35;;;6.10;99.90;;;;;;5053929;28;20079;-78
2024/01/01 00:03:43;;;;;;;21.25;13.13;;;6.10;99.90;;;;;;5053216;28;20408;-78
2024/01/01 00:06:09;;;;;;;20.10;13.70;;;6.10;99.90;;;;;;5053734;28;20036;-78
2024/01/01 00:08:35;;;;;;;20.40;12.80;;;6.10;99.90;;;;;;5053405;28;20453;-77
2024/01/01 00:11:01;;;;;;;16.48;11.82;;;6.20;99.90;;;;;;5053272;28;20112;-78
2024/01/01 00:13:26;;;;;;;19.80;12.82;;;6.20;99.90;;;;;;5053598;28;20033;-78
2024/01/01 00:15:52;;;;;;;16.67;11.68;;;6.20;99.90;;;;;;5052909;28;20517;-79
2024/01/01 00:18:17;;;;;;;14.70;10.48;;;6.20;99.90;;;;;;5053412;28;20426;-78
2024/01/01 00:20:44;;;;;;;18.15;10.50;;;6.20;99.90;;;;;;5053044;28;20129;-78
2024/01/01 00:23:10;;;;;;;16.30;10.95;;;6.20;99.90;;;;;;5053212;28;20112;-78
2024/01/01 00:25:36;;;;;;;14.77;10.15;;;6.30;99.90;;;;;;5052605;28;20390;-76
2024/01/01 00:28:04;;;;;;;15.98;9.95;;;6.20;99.90;;;;;;5053215;28;20025;-78
2024/01/01 00:30:29;;;;;;;13.63;9.15;;;6.30;99.90;;;;;;5053604;28;20039;-79
2024/01/01 00:32:55;;;;;;;15.77;9.68;;;6.30;99.90;;;;;;5051532;28;20431;-79
2024/01/01 00:35:21;;;;;;;13.35;9.30;;;6.20;99.90;;;;;;5053130;28;20047;-78
2024/01/01 00:37:46;;;;;;;15.57;8.90;;;6.30;99.90;;;;;;5052671;28;20029;-78
2024/01/01 00:40:12;;;;;;;12.18;8.38;;;6.20;99.90;;;;;;5053199;28;20033;-79
2024/01/01 00:42:38;;;;;;;12.38;7.40;;;6.20;99.90;;;;;;5052458;28;20457;-77
2024/01/01 00:45:04;;;;;;;12.13;8.23;;;6.20;99.90;;;;;;5052867;28;20032;-78
2024/01/01 00:47:30;;;;;;;10.45;7.32;;;6.20;99.90;;;;;;5053004;28;20394;-79
2024/01/01 00:49:57;;;;;;;10.10;6.60;;;6.30;99.90;;;;;;5052469;28;20025;-79
2024/01/01 00:52:23;;;;;;;9.77;6.80;;;6.30;99.90;;;;;;5051705;28;20103;-79
2024/01/01 00:54:49;;;;;;;10.55;6.97;;;6.30;99.90;;;;;;5052577;28;20044;-78
2024/01/01 00:57:14;;;;;;;10.57;6.80;;;6.20;99.90;;;;;;5051706;28;20029;-78
2024/01/01 00:59:40;;;;;;;10.32;7.35;;;6.20;99.90;;;;;;5051957;28;20049;-77
2024/01/01 01:02:06;;;;;;;10.07;6.90;;;6.20;99.90;;;;;;5051404;28;20031;-78
2024/01/01 01:04:31;;;;;;;8.65;5.90;;;6.20;99.90;;;;;;5053068;28;20382;-78
2024/01/01 01:06:57;;;;;;;6.97;5.20;;;6.20;99.90;;;;;;5052102;28;20025;-79
2024/01/01 01:09:23;;;;;;;5.80;4.38;;;6.20;99.90;;;;;;5052577;28;20029;-79
2024/01/01 01:11:48;;;;;;;7.15;4.60;;;6.20;99.90;;;;;;5052059;28;20028;-78
2024/01/01 01:14:14;;;;;;;8.35;5.38;;;6.20;99.90;;;;;;5052486;28;20064;-78
2024/01/01 01:16:39;;;;;;;9.50;4.00;;;6.10;99.90;;;;;;5052035;28;20025;-77
2024/01/01 01:19:05;;;;;;;5.97;4.25;;;6.10;99.90;;;;;;5051989;28;20055;-78
2024/01/01 01:21:31;;;;;;;6.05;4.30;;;6.10;99.90;;;;;;5052210;28;20044;-79
2024/01/01 01:23:58;;;;;;;6.25;3.92;;;6.00;99.90;;;;;;5051973;28;20024;-78
2024/01/01 01:26:24;;;;;;;4.97;3.47;;;6.00;99.90;;;;;;5052069;28;20033;-78
2024/01/01 01:28:50;;;;;;;6.47;3.33;;;6.00;99.90;;;;;;5051796;28;20039;-78
2024/01/01 01:31:15;;;;;;;5.65;3.30;;;5.90;99.90;;;;;;5052023;28;20028;-78
2024/01/01 01:33:41;;;;;;;3.80;2.70;;;5.80;99.90;;;;;;5049942;28;20078;-74
2024/01/01 01:36:08;;;;;;;4.55;3.30;;;5.70;99.90;;;;;;5051018;28;20036;-78
2024/01/01 01:38:35;;;;;;;3.63;2.72;;;5.70;99.90;;;;;;5049025;28;20032;-78
2024/01/01 01:41:01;;;;;;;4.40;3.20;;;5.60;99.90;;;;;;5051311;28;20048;-78
2024/01/01 01:43:27;;;;;;;5.22;2.80;;;5.60;99.90;;;;;;5051864;28;20028;-78
2024/01/01 01:45:54;;;;;;;4.85;3.03;;;5.50;99.90;;;;;;5045780;28;20025;-78
2024/01/01 01:48:21;;;;;;;4.35;2.67;;;5.40;99.90;;;;;;5050977;28;20410;-78
2024/01/01 01:50:48;;;;;;;3.78;3.10;;;5.40;99.90;;;;;;5050913;28;20350;-78
2024/01/01 01:53:15;;;;;;;3.75;2.55;;;5.30;99.90;;;;;;5051349;28;20020;-78
2024/01/01 01:55:43;;;;;;;4.72;2.85;;;5.30;99.90;;;;;;5053539;28;20021;-77
2024/01/01 01:58:10;;;;;;;4.78;3.47;;;5.20;99.90;;;;;;5051429;28;20517;-78
2024/01/01 02:00:39;;;;;;;3.35;2.67;;;5.20;99.90;;;;;;5051020;28;20049;-78
2024/01/01 02:03:07;;;;;;;4.75;3.33;;;5.20;99.90;;;;;;5050746;28;20421;-78
2024/01/01 02:05:33;;;;;;;4.43;3.47;;;5.10;99.90;;;;;;5047395;28;20017;-76
2024/01/01 02:08:00;;;;;;;3.67;3.20;;;5.10;99.90;;;;;;5051611;28;20029;-76
2024/01/01 02:10:26;;;;;;;4.03;3.15;;;5.00;99.90;;;;;;5055128;28;20088;-77
2024/01/01 02:12:52;;;;;;;3.75;2.85;;;5.00;99.90;;;;;;5054380;28;20416;-77
2024/01/01 02:15:20;;;;;;;4.57;3.17;;;5.00;99.90;;;;;;5053136;28;20021;-76
2024/01/01 02:17:46;;;;;;;4.40;3.35;;;5.00;99.90;;;;;;5050941;28;20033;-76
2024/01/01 02:20:11;;;;;;;4.45;3.03;;;5.00;99.90;;;;;;5051159;28;20025;-78
2024/01/01 02:22:38;;;;;;;3.45;2.75;;;5.00;99.90;;;;;;5051670;28;20025;-76
2024/01/01 02:25:05;;;;;;;4.80;3.40;;;4.90;99.90;;;;;;5050409;28;20037;-76
2024/01/01 02:27:31;;;;;;;6.13;3.20;;;4.90;99.90;;;;;;5049058;28;20477;-77
2024/01/01 02:29:56;;;;;;;3.33;2.65;;;4.90;99.90;;;;;;5050148;28;20112;-77
2024/01/01 02:32:22;;;;;;;3.13;2.50;;;4.80;99.90;;;;;;5051353;28;20025;-79
2024/01/01 02:34:48;;;;;;;3.90;2.78;;;4.80;99.90;;;;;;5050823;28;20366;-76
2024/01/01 02:37:14;;;;;;;4.18;2.90;;;4.70;99.90;;;;;;5051515;28;20032;-78
2024/01/01 02:39:39;;;;;;;4.28;2.80;;;4.70;99.90;;;;;;5051441;28;20033;-78
2024/01/01 02:42:05;;;;;;;4.90;2.90;;;4.60;99.90;;;;;;5050960;28;20382;-78
2024/01/01 02:44:31;;;;;;;3.72;2.90;;;4.60;99.90;;;;;;5051334;28;20033;-78
2024/01/01 02:46:56;;;;;;;3.40;2.75;;;4.60;99.90;;;;;;5050839;28;20116;-77
2024/01/01 02:49:22;;;;;;;3.97;2.78;;;4.60;99.90;;;;;;5051307;28;20033;-78
2024/01/01 02:51:47;;;;;;;3.20;2.53;;;4.60;99.90;;;;;;5050757;28;20104;-75
2024/01/01 02:54:14;;;;;;;2.67;2.10;;;4.60;99.90;;;;;;5051323;28;20028;-78
2024/01/01 02:56:40;;;;;;;3.00;2.70;;;4.60;99.90;;;;;;5054030;28;20028;-78
2024/01/01 02:59:06;;;;;;;3.83;2.40;;;4.60;99.90;;;;;;5052938;28;20059;-77
2024/01/01 03:01:31;;;;;;;4.68;2.85;;;4.50;99.90;;;;;;5054982;28;20029;-77
2024/01/01 03:03:57;;;;;;;3.25;2.58;;;4.60;99.90;;;;;;5054521;28;20096;-76
2024/01/01 03:06:22;;;;;;;4.30;2.90;;;4.50;99.90;;;;;;5054569;28;20462;-77
2024/01/01 03:08:48;;;;;;;4.00;2.85;;;4.50;99.90;;;;;;5054530;28;20067;-77
2024/01/01 03:11:14;;;;;;;4.80;2.95;;;4.50;99.90;;;;;;5054637;28;20089;-77
2024/01/01 03:13:40;;;;;;;3.42;2.88;;;4.50;99.90;;;;;;5054765;28;20066;-77
2024/01/01 03:16:08;;;;;;;5.22;3.00;;;4.50;99.90;;;;;;5054498;28;20114;-77
2024/01/01 03:18:34;;;;;;;4.07;2.95;;;4.50;99.90;;;;;;5054758;28;20121;-77
2024/01/01 03:21:00;;;;;;;4.15;2.80;;;4.50;99.90;;;;;;5054226;28;20174;-77
2024/01/01 03:23:25;;;;;;;5.65;3.03;;;4.50;99.90;;;;;;5054508;28;20029;-77
2024/01/01 03:25:51;;;;;;;4.07;2.80;;;4.50;99.90;;;;;;5053859;28;20033;-75
2024/01/01 03:28:16;;;;;;;5.57;3.10;;;4.50;99.90;;;;;;5054650;28;20370;-77
2024/01/01 03:30:43;;;;;;;3.70;2.72;;;4.50;99.90;;;;;;5054189;28;20103;-77
2024/01/01 03:33:09;;;;;;;4.97;2.97;;;4.50;99.90;;;;;;5054091;28;20053;-78
2024/01/01 03:35:34;;;;;;;5.63;2.80;;;4.50;99.90;;;;;;5054114;28;20056;-77
2024/01/01 03:38:01;;;;;;;3.55;2.88;;;4.50;99.90;;;;;;5054044;28;20032;-77
2024/01/01 03:40:27;;;;;;;4.18;2.90;;;4.50;99.90;;;;;;5054499;28;20098;-77
2024/01/01 03:42:53;;;;;;;4.35;3.20;;;4.60;99.90;;;;;;5053993;28;20449;-76
2024/01/01 03:45:19;;;;;;;4.22;3.05;;;4.60;99.90;;;;;;5054598;28;20059;-76
2024/01/01 03:47:45;;;;;;;4.32;3.03;;;4.60;99.90;;;;;;5054249;28;20060;-76
2024/01/01 03:50:10;;;;;;;3.67;2.97;;;4.60;99.90;;;;;;5058901;28;20388;-76
2024/01/01 03:52:36;;;;;;;4.15;3.30;;;4.60;99.90;;;;;;5074523;28;20055;-76
2024/01/01 03:55:03;;;;;;;3.92;2.90;;;4.60;99.90;;;;;;5073719;28;20023;-76
2024/01/01 03:57:31;;;;;;;5.13;3.38;;;4.60;99.90;;;;;;5070718;28;20048;-76
2024/01/01 03:59:57;;;;;;;5.18;2.97;;;4.60;99.90;;;;;;5052871;28;20136;-76
2024/01/01 04:02:22;;;;;;;4.50;3.30;;;4.60;99.90;;;;;;5053799;28;20100;-77
2024/01/01 04:04:50;;;;;;;4.15;3.15;;;4.60;99.90;;;;;;5053492;28;20083;-77
2024/01/01 04:07:16;;;;;;;5.30;3.28;;;4.70;99.90;;;;;;5052081;28;20492;-77
2024/01/01 04:09:42;;;;;;;4.55;3.05;;;4.70;99.90;;;;;;5053333;28;20424;-76
2024/01/01 04:12:07;;;;;;;4.05;3.35;;;4.70;99.90;;;;;;5053617;28;20025;-77
2024/01/01 04:14:33;;;;;;;5.00;3.03;;;4.70;99.90;;;;;;5053594;28;20123;-77
2024/01/01 04:16:59;;;;;;;4.80;2.90;;;4.80;99.90;;;;;;5052024;28;20355;-76
2024/01/01 04:19:24;;;;;;;4.57;3.35;;;4.80;99.90;;;;;;5053132;28;20029;-77
2024/01/01 04:21:50;;;;;;;3.67;3.03;;;4.80;99.90;;;;;;5053432;28;20033;-77
2024/01/01 04:24:16;;;;;;;3.78;2.70;;;4.80;99.90;;;;;;5052942;28;20151;-77
2024/01/01 04:26:41;;;;;;;4.88;2.95;;;4.80;99.90;;;;;;5053080;28;20032;-77
2024/01/01 04:29:07;;;;;;;4.18;2.88;;;4.80;99.90;;;;;;5052962;28;20032;-77
2024/01/01 04:31:32;;;;;;;3.88;2.70;;;4.90;99.90;;;;;;5053319;28;20032;-77
2024/01/01 04:33:58;;;;;;;4.72;3.10;;;4.90;99.90;;;;;;5052772;28;20032;-77
2024/01/01 04:36:24;;;;;;;4.18;3.40;;;4.90;99.90;;;;;;5052911;28;20021;-77
2024/01/01 04:38:50;;;;;;;3.45;2.67;;;4.90;99.90;;;;;;5053109;28;20443;-77
2024/01/01 04:41:16;;;;;;;4.00;2.80;;;4.90;99.90;;;;;;5052786;28;20224;-78
2024/01/01 04:43:41;;;;;;;4.95;3.17;;;4.90;99.90;;;;;;5052808;28;20032;-77
2024/01/01 04:46:08;;;;;;;5.55;2.67;;;4.90;99.90;;;;;;5052321;28;20394;-78
2024/01/01 04:48:36;;;;;;;3.50;2.40;;;4.90;99.90;;;;;;5053292;28;20086;-78
2024/01/01 04:51:02;;;;;;;3.75;2.50;;;4.90;99.90;;;;;;5052411;28;20028;-77
2024/01/01 04:53:28;;;;;;;4.70;2.58;;;4.90;99.90;;;;;;5060818;28;20021;-77
2024/01/01 04:55:54;;;;;;;3.22;2.42;;;4.90;99.90;;;;;;5070573;28;20043;-78
2024/01/01 04:58:20;;;;;;;4.25;2.92;;;4.90;99.90;;;;;;5061835;28;20025;-77
2024/01/01 05:00:45;;;;;;;4.38;2.50;;;4.90;99.90;;;;;;5052793;28;20497;-77
2024/01/01 05:03:11;;;;;;;4.35;3.10;;;4.90;99.90;;;;;;5052178;28;20037;-77
2024/01/01 05:05:37;;;;;;;4.28;2.67;;;4.90;99.90;;;;;;5052626;28;20116;-77
2024/01/01 05:08:03;;;;;;;3.00;2.28;;;4.90;99.90;;;;;;5052172;28;20105;-77
2024/01/01 05:10:28;;;;;;;3.50;2.20;;;4.90;99.90;;;;;;5052628;28;20060;-77
2024/01/01 05:12:54;;;;;;;3.58;2.35;;;5.00;99.90;;;;;;5052520;28;20116;-77
2024/01/01 05:15:19;;;;;;;3.97;1.90;;;5.00;99.90;;;;;;5052135;28;20033;-77
2024/01/01 05:17:45;;;;;;;3.35;2.20;;;5.00;99.90;;;;;;5051965;28;20075;-77
2024/01/01 05:20:11;;;;;;;3.78;2.10;;;5.00;99.90;;;;;;5051524;28;20116;-77
2024/01/01 05:22:37;;;;;;;3.17;1.80;;;5.10;99.90;;;;;;5052554;28;20411;-77
2024/01/01 05:25:03;;;;;;;3.45;1.88;;;5.10;99.90;;;;;;5051792;28;20476;-77
2024/01/01 05:27:28;;;;;;;3.78;2.35;;;5.10;99.90;;;;;;5052333;28;20101;-78
2024/01/01 05:29:54;;;;;;;2.83;1.80;;;5.20;99.90;;;;;;5052193;28;20029;-77
2024/01/01 05:32:20;;;;;;;4.43;2.03;;;5.10;99.90;;;;;;5051739;28;20100;-77
2024/01/01 05:34:46;;;;;;;3.40;2.10;;;5.20;99.90;;;;;;5051807;28;20052;-77
2024/01/01 05:37:12;;;;;;;2.63;1.60;;;5.20;99.90;;;;;;5051614;28;20103;-77
2024/01/01 05:39:38;;;;;;;4.10;2.15;;;5.20;99.90;;;;;;5052026;28;20116;-76
2024/01/01 05:42:04;;;;;;;2.85;1.98;;;5.20;99.90;;;;;;5051361;28;20100;-76
2024/01/01 05:44:30;;;;;;;3.53;2.17;;;5.30;99.90;;;;;;5051760;28;20028;-77
2024/01/01 05:46:55;;;;;;;2.70;2.00;;;5.20;99.90;;;;;;5052052;28;20025;-77
2024/01/01 05:49:23;;;;;;;4.00;2.22;;;5.30;99.90;;;;;;5051935;28;20397;-76
2024/01/01 05:51:49;;;;;;;4.55;2.28;;;5.30;99.90;;;;;;5069365;28;20482;-77
2024/01/01 05:54:14;;;;;;;3.05;2.08;;;5.30;99.90;;;;;;5060476;28;20159;-76
2024/01/01 05:56:40;;;;;;;4.57;2.25;;;5.30;99.90;;;;;;5053597;28;20143;-77
2024/01/01 05:59:06;;;;;;;2.70;2.10;;;5.30;99.90;;;;;;5056572;28;20053;-77
2024/01/01 06:01:32;;;;;;;4.50;2.45;;;5.40;99.90;;;;;;5054680;28;20043;-77
2024/01/01 06:03:58;;;;;;;2.97;2.10;;;5.40;99.90;;;;;;5052104;28;20063;-77
2024/01/01 06:06:24;;;;;;;5.07;2.97;;;5.40;99.90;;;;;;5051571;28;20049;-77
2024/01/01 06:08:50;;;;;;;4.22;2.88;;;5.50;99.90;;;;;;5051702;28;20029;-78
2024/01/01 06:11:16;;;;;;;3.58;2.40;;;5.50;99.90;;;;;;5051297;28;20097;-77
2024/01/01 06:13:42;;;;;;;4.63;2.47;;;5.50;99.90;;;;;;5051833;28;20025;-77
2024/01/01 06:16:08;;;;;;;4.35;1.95;;;5.50;99.90;;;;;;5051514;28;20029;-77
2024/01/01 06:18:33;;;;;;;2.47;2.00;;;5.60;99.90;;;;;;5052174;28;20026;-77
2024/01/01 06:20:59;;;;;;;3.00;1.70;;;5.60;99.90;;;;;;5051835;28;20104;-78
2024/01/01 06:23:25;;;;;;;2.40;1.77;;;5.60;99.90;;;;;;5051336;28;20025;-77
2024/01/01 06:25:52;;;;;;;2.90;1.70;;;5.60;99.90;;;;;;5050358;28;20029;-77
2024/01/01 06:28:18;;;;;;;2.13;1.55;;;5.70;99.90;;;;;;5051334;28;20051;-77
2024/01/01 06:30:44;;;;;;;3.10;1.83;;;5.70;99.90;;;;;;5053011;28;20071;-77
2024/01/01 06:33:09;;;;;;;1.77;1.30;;;5.70;99.90;;;;;;5054870;28;20088;-76
2024/01/01 06:35:35;;;;;;;1.90;1.33;;;5.70;99.90;;;;;;5055460;28;20158;-77
2024/01/01 06:38:01;;;;;;;2.03;1.65;;;5.70;99.90;;;;;;5054104;28;20439;-77
2024/01/01 06:40:27;;;;;;;1.60;1.33;;;5.70;99.90;;;;;;5054674;28;20072;-77
2024/01/01 06:42:53;;;;;;;2.55;1.63;;;5.70;99.90;;;;;;5053919;28;20480;-77
2024/01/01 06:45:18;;;;;;;2.67;1.60;;;5.70;99.90;;;;;;5054518;28;20025;-76
2024/01/01 06:47:44;;;;;;;2.25;1.45;;;5.80;99.90;;;;;;5053860;28;20107;-77
2024/01/01 06:50:10;;;;;;;2.92;1.60;;;5.80;99.90;;;;;;5054831;28;20029;-76
2024/01/01 06:52:35;;;;;;;2.47;1.67;;;5.80;99.90;;;;;;5054931;28;20036;-77
2024/01/01 06:55:01;;;;;;;2.15;1.60;;;5.80;99.90;;;;;;5055070;28;20029;-76
2024/01/01 06:57:26;;;;;;;2.65;1.58;;;5.80;99.90;;;;;;5054756;28;20029;-76
2024/01/01 06:59:52;;;;;;;1.98;1.40;;;5.80;99.90;;;;;;5055055;28;20125;-76
2024/01/01 07:02:18;;;;;;;1.92;1.50;;;5.80;99.90;;;;;;5054190;28;20047;-76
2024/01/01 07:04:44;;;;;;;2.38;1.50;;;5.90;99.90;;;;;;5054950;28;20021;-77
2024/01/01 07:07:10;;;;;;;2.20;1.60;;;5.90;99.90;;;;;;5054225;28;20036;-75
2024/01/01 07:09:35;;;;;;;2.35;1.67;;;5.90;99.90;;;;;;5053663;28;20029;-77
2024/01/01 07:12:18;;;;;;;2.45;1.80;;;5.90;99.90;;;;;;5054866;28;20035;-77
2024/01/01 07:14:44;;;;;;;4.43;1.83;;;5.90;99.90;;;;;;5054738;28;20033;-78
2024/01/01 07:17:10;;;;;;;2.05;1.45;;;5.90;99.90;;;;;;5054254;28;20104;-76
2024/01/01 07:19:35;;;;;;;2.85;1.83;;;5.90;99.90;;;;;;5054587;28;20046;-78
2024/01/01 07:22:01;;;;;;;5.82;2.03;;;6.00;99.90;;;;;;5054654;28;20457;-78
2024/01/01 07:24:27;;;;;;;3.90;1.90;;;6.00;99.90;;;;;;5054560;28;20025;-78
2024/01/01 07:26:52;;;;;;;6.10;2.10;;;6.00;99.90;;;;;;5054212;28;20027;-76
2024/01/01 07:29:18;;;;;;;3.28;2.10;;;6.00;99.90;;;;;;5053868;28;20029;-77
2024/01/01 07:31:43;;;;;;;4.38;2.50;;;6.00;99.90;;;;;;5052818;28;20442;-76
2024/01/01 07:34:09;;;;;;;3.25;2.15;;;6.00;99.90;;;;;;5054430;28;20025;-77
2024/01/01 07:36:35;;;;;;;3.28;2.38;;;6.10;99.90;;;;;;5053976;28;20036;-78
2024/01/01 07:39:00;;;;;;;3.20;1.77;;;6.10;99.90;;;;;;5053998;28;20041;-77
2024/01/01 07:41:26;;;;;;;4.35;2.80;;;6.10;99.90;;;;;;5053137;28;20407;-78
2024/01/01 07:43:52;;;;;;;6.60;2.55;;;6.10;99.90;;;;;;5052415;28;20029;-76
2024/01/01 07:46:17;;;;;;;4.13;2.40;;;6.10;99.90;;;;;;5053754;28;20017;-77
2024/01/01 07:48:43;;;;;;;3.75;2.42;;;6.10;99.90;;;;;;5054751;28;20040;-76
2024/01/01 07:51:09;;;;;;;4.20;2.95;;;6.10;99.90;;;;;;5054149;28;20075;-77
2024/01/01 07:53:34;;;;;;;6.32;2.78;;;6.10;99.90;;;;;;5053714;28;20100;-77
2024/01/01 07:56:01;;;;;;;4.80;2.75;;;6.10;99.90;;;;;;5054051;28;20379;-77
2024/01/01 07:58:27;;;;;;;4.88;2.80;;;6.10;99.90;;;;;;5053626;28;20036;-77
2024/01/01 08:00:55;;;;;;;5.32;2.40;;;6.20;99.90;;;;;;5053514;28;20367;-77
2024/01/01 08:03:21;;;;;;;3.80;2.72;;;6.20;99.90;;;;;;5053597;28;20079;-76
2024/01/01 08:05:46;;;;;;;5.57;2.95;;;6.20;99.90;;;;;;5051127;28;20033;-76
2024/01/01 08:08:12;;;;;;;4.35;2.50;;;6.20;99.90;;;;;;5050395;28;20371;-76
2024/01/01 08:10:38;;;;;;;4.40;2.97;;;6.20;99.90;;;;;;5051362;28;20040;-76
2024/01/01 08:13:04;;;;;;;3.97;2.58;;;6.30;99.90;;;;;;5053615;28;20029;-77
2024/01/01 08:15:29;;;;;;;4.65;3.30;;;6.30;99.90;;;;;;5053196;28;20029;-77
2024/01/01 08:17:55;;;;;;;3.88;3.00;;;6.30;99.90;;;;;;5053271;28;20032;-77
2024/01/01 08:20:21;;;;;;;5.13;3.17;;;6.20;99.90;;;;;;5053078;28;20036;-77
2024/01/01 08:22:47;;;;;;;5.05;3.03;;;6.30;99.90;;;;;;5053392;28;20381;-77
2024/01/01 08:25:12;;;;;;;5.18;3.38;;;6.30;99.90;;;;;;5053528;28;20079;-77
2024/01/01 08:27:38;;;;;;;6.10;3.83;;;6.30;99.90;;;;;;5053012;28;20491;-77
2024/01/01 08:30:06;;;;;;;8.77;4.10;;;6.40;99.90;;;;;;5053125;28;20033;-76
2024/01/01 08:32:35;;;;;;;7.85;4.20;;;6.40;99.90;;;;;;5052755;28;20025;-77
2024/01/01 08:35:01;;;;;;;6.95;4.03;;;6.40;99.90;;;;;;5053215;28;20028;-77
2024/01/01 08:37:26;;;;;;;6.47;4.55;;;6.40;99.90;;;;;;5052236;28;20099;-77
2024/01/01 08:39:52;;;;;;;5.97;4.20;;;6.50;99.90;;;;;;5052760;28;20036;-78
2024/01/01 08:42:17;;;;;;;7.85;4.63;;;6.50;99.90;;;;;;5052761;28;20457;-76
2024/01/01 08:44:43;;;;;;;7.90;4.70;;;6.50;99.90;;;;;;5053069;28;20025;-77
2024/01/01 08:47:08;;;;;;;7.50;4.65;;;6.50;99.90;;;;;;5056655;28;20393;-78
2024/01/01 08:49:34;;;;;;;7.57;4.97;;;6.60;99.90;;;;;;5062084;28;20048;-76
2024/01/01 08:52:00;;;;;;;8.82;4.90;;;6.60;99.90;;;;;;5064989;28;20036;-76
2024/01/01 08:54:26;;;;;;;8.30;5.18;;;6.60;99.90;;;;;;5057787;28;20443;-78
2024/01/01 08:56:52;;;;;;;9.10;5.30;;;6.70;99.90;;;;;;5060868;28;20109;-78
2024/01/01 08:59:17;;;;;;;8.82;5.47;;;6.70;99.90;;;;;;5059616;28;20052;-79
2024/01/01 09:01:47;;;;;;;9.10;5.05;;;6.70;99.90;;;;;;5063545;28;20056;-79
2024/01/01 09:04:13;;;;;;;9.27;5.53;;;6.80;99.90;;;;;;5063968;28;20396;-73
2024/01/01 09:06:39;;;;;;;8.63;6.28;;;6.80;99.90;;;;;;5064359;28;20458;-79
2024/01/01 09:09:05;;;;;;;11.23;6.32;;;6.80;99.90;;;;;;5064116;28;20029;-78
2024/01/01 09:11:30;;;;;;;9.05;5.65;;;6.90;99.90;;;;;;5055156;28;20047;-79
2024/01/01 09:13:56;;;;;;;11.18;6.07;;;6.90;99.90;;;;;;5051935;28;20048;-76
2024/01/01 09:16:22;;;;;;;8.85;5.80;;;6.90;99.90;;;;;;5051593;28;20040;-78
2024/01/01 09:18:48;;;;;;;10.15;5.53;;;7.00;99.90;;;;;;5051901;28;20118;-75
2024/01/01 09:21:15;;;;;;;10.50;6.03;;;7.00;99.90;;;;;;5052190;28;20052;-75
2024/01/01 09:23:41;;;;;;;11.10;6.30;;;7.00;99.90;;;;;;5049092;28;20047;-77
2024/01/01 09:26:07;;;;;;;10.88;6.05;;;7.10;99.90;;;;;;5051929;28;20037;-79
2024/01/01 09:28:33;;;;;;;11.82;6.15;;;7.10;99.90;;;;;;5052277;28;20415;-79
2024/01/01 09:30:59;;;;;;;11.43;6.57;;;7.10;99.90;;;;;;5052200;28;20017;-77
2024/01/01 09:33:25;;;;;;;11.73;5.72;;;7.20;99.90;;;;;;5051314;28;20374;-77
2024/01/01 09:35:52;;;;;;;10.55;5.50;;;7.20;99.90;;;;;;5053748;28;20067;-76
2024/01/01 09:38:18;;;;;;;10.40;5.82;;;7.30;99.90;;;;;;5056699;28;20021;-77
2024/01/01 09:40:44;;;;;;;9.93;5.68;;;7.30;99.90;;;;;;5052209;28;20032;-77
2024/01/01 09:43:17;;;;;;;9.02;4.80;;;7.40;99.90;;;;;;5051528;28;20079;-77
2024/01/01 09:45:46;;;;;;;10.98;5.88;;;7.50;99.90;;;;;;5051059;28;20028;-77
2024/01/01 09:48:12;;;;;;;10.35;5.18;;;7.50;99.90;;;;;;5050658;28;20028;-77
2024/01/01 09:50:37;;;;;;;8.15;5.28;;;7.60;99.90;;;;;;5048853;28;20174;-76
2024/01/01 09:53:03;;;;;;;6.65;4.13;;;7.70;99.90;;;;;;5050287;28;20036;-77
2024/01/01 09:55:30;;;;;;;9.55;5.15;;;7.70;99.90;;;;;;5050607;28;20029;-77
2024/01/01 09:57:55;;;;;;;7.57;4.43;;;7.70;99.90;;;;;;5051397;28;20024;-79
2024/01/01 10:00:22;;;;;;;10.30;5.00;;;7.80;99.90;;;;;;5051455;28;20397;-77
2024/01/01 10:02:48;;;;;;;8.32;4.30;;;7.80;99.90;;;;;;5051171;28;20048;-77
2024/01/01 10:05:15;;;;;;;8.30;4.75;;;7.80;99.90;;;;;;5054599;28;20024;-76
2024/01/01 10:07:40;;;;;;;9.52;4.80;;;7.80;99.90;;;;;;5055228;28;20040;-79
2024/01/01 10:10:07;;;;;;;6.90;4.10;;;7.90;99.90;;;;;;5056431;28;20029;-77
2024/01/01 10:12:33;;;;;;;7.90;4.60;;;7.90;99.90;;;;;;5054984;28;20037;-71
2024/01/01 10:14:59;;;;;;;7.03;3.95;;;7.90;99.90;;;;;;5056075;28;20108;-79
2024/01/01 10:17:25;;;;;;;8.77;4.20;;;8.00;99.80;;;;;;5055095;28;20032;-85
2024/01/01 10:19:59;;;;;;;7.90;4.03;;;8.10;98.70;;;;;;5056343;28;20123;-76
2024/01/01 10:22:29;;;;;;;11.55;4.25;;;8.10;97.90;;;;;;5055374;28;20017;-73
2024/01/01 10:25:12;;;;;;;6.75;4.43;;;8.10;98.30;;;;;;5054341;28;20021;-82
2024/01/01 10:27:38;;;;;;;7.78;3.72;;;8.10;98.00;;;;;;5060521;28;20477;-71
2024/01/01 10:30:04;;;;;;;5.90;4.00;;;8.10;97.90;;;;;;5064893;28;20055;-78
2024/01/01 10:32:30;;;;;;;9.95;4.05;;;8.20;97.70;;;;;;5065432;28;20067;-81
2024/01/01 10:35:01;;;;;;;7.00;4.13;;;8.20;97.50;;;;;;5064733;28;20523;-74
2024/01/01 10:37:28;;;;;;;7.90;4.35;;;8.20;98.00;;;;;;5061254;28;20017;-73
2024/01/01 10:39:54;;;;;;;8.70;4.25;;;8.30;97.60;;;;;;5054436;28;20470;-73
2024/01/01 10:42:20;;;;;;;5.80;3.92;;;8.20;97.30;;;;;;5054603;28;20029;-73
2024/01/01 10:44:46;;;;;;;5.93;3.75;;;8.20;97.30;;;;;;5053880;28;20023;-74
2024/01/01 10:47:16;;;;;;;7.82;3.72;;;8.30;97.10;;;;;;5054583;28;20032;-79
2024/01/01 10:49:51;;;;;;;5.47;3.38;;;8.30;97.00;;;;;;5054431;28;20135;-77
2024/01/01 10:53:02;;;;;;;6.82;4.03;;;8.30;96.90;;;;;;5053244;28;20021;-73
2024/01/01 10:55:58;;;;;;;6.27;3.43;;;8.20;96.90;;;;;;5045790;28;20063;-74
2024/01/01 10:58:50;;;;;;;5.03;2.90;;;8.20;96.80;;;;;;5055356;28;20047;-74
2024/01/01 11:01:19;;;;;;;4.68;2.42;;;8.20;96.30;;;;;;5055173;28;20037;-73
2024/01/01 11:03:48;;;;;;;3.42;2.47;;;8.20;96.10;;;;;;5054517;28;20025;-74
2024/01/01 11:06:31;;;;;;;8.00;2.97;;;8.20;95.90;;;;;;5054325;28;20484;-74
2024/01/01 11:09:18;;;;;;;5.05;2.90;;;8.20;96.00;;;;;;5054344;28;20032;-74
2024/01/01 11:11:51;;;;;;;4.47;3.08;;;8.20;95.60;;;;;;5053769;28;20083;-74
2024/01/01 11:14:31;;;;;;;5.35;3.10;;;8.30;95.60;;;;;;5054825;28;20474;-74
2024/01/01 11:17:02;;;;;;;4.68;2.58;;;8.30;95.70;;;;;;5053796;28;20073;-73
2024/01/01 11:19:37;;;;;;;5.43;2.83;;;8.30;95.90;;;;;;5054116;28;20040;-85
2024/01/01 11:22:18;;;;;;;4.50;3.00;;;8.30;95.80;;;;;;5052986;28;20393;-74
2024/01/01 11:24:45;;;;;;;9.00;3.40;;;8.30;95.80;;;;;;5054147;28;20029;-74
2024/01/01 11:27:23;;;;;;;5.60;3.22;;;8.40;95.60;;;;;;5054571;28;20532;-74
2024/01/01 11:29:49;;;;;;;5.60;2.85;;;8.40;95.30;;;;;;5054126;28;20036;-73
2024/01/01 11:32:17;;;;;;;6.25;3.05;;;8.50;94.90;;;;;;5054313;28;20058;-74
2024/01/01 11:34:43;;;;;;;6.70;3.58;;;8.50;94.50;;;;;;5054304;28;20040;-73
2024/01/01 11:37:19;;;;;;;7.32;2.95;;;8.50;94.20;;;;;;5053855;28;20485;-72
2024/01/01 11:39:59;;;;;;;5.50;2.97;;;8.50;94.10;;;;;;5051172;28;20029;-73
2024/01/01 11:42:25;;;;;;;5.25;3.00;;;8.60;94.20;;;;;;5053950;28;20044;-73
2024/01/01 11:45:30;;;;;;;4.05;2.55;;;8.60;93.90;;;;;;5053350;28;20446;-73
2024/01/01 11:48:04;;;;;;;5.43;2.72;;;8.60;93.80;;;;;;5051370;28;20398;-74
2024/01/01 11:50:30;;;;;;;3.03;2.45;;;8.70;93.20;;;;;;5050385;28;20489;-76
2024/01/01 11:53:03;;;;;;;3.78;2.35;;;8.70;93.00;;;;;;5053575;28;20064;-73
2024/01/01 11:55:28;;;;;;;5.65;2.65;;;8.70;92.70;;;;;;5052839;28;20025;-73
2024/01/01 11:57:54;;;;;;;4.93;2.60;;;8.70;92.80;;;;;;5052774;28;20378;-74
2024/01/01 12:00:21;;;;;;;4.75;2.45;;;8.80;92.60;;;;;;5055696;28;20161;-72
2024/01/01 12:02:47;;;;;;;4.97;2.45;;;8.90;92.20;;;;;;5052476;28;20074;-73
2024/01/01 12:05:18;;;;;;;4.22;2.72;;;9.00;92.10;;;;;;5053392;28;20032;-72
2024/01/01 12:07:43;;;;;;;2.65;2.00;;;9.10;91.90;;;;;;5052572;28;20036;-72
2024/01/01 12:10:17;;;;;;;4.55;2.25;;;9.00;90.90;;;;;;5053028;28;20408;-73
2024/01/01 12:12:43;;;;;;;3.58;2.40;;;9.10;90.70;;;;;;5052327;28;20055;-73
2024/01/01 12:15:17;;;;;;;5.72;2.40;;;9.20;90.60;;;;;;5052583;28;20028;-73
2024/01/01 12:17:44;;;;;;;5.32;2.28;;;9.30;90.40;;;;;;5052547;28;20017;-72
2024/01/01 12:20:13;;;;;;;5.75;2.45;;;9.30;89.50;;;;;;5052698;28;20029;-72
2024/01/01 12:22:39;;;;;;;4.05;2.30;;;9.30;89.00;;;;;;5052425;28;20025;-72
2024/01/01 12:25:05;;;;;;;5.65;3.05;;;9.30;88.60;;;;;;5052882;28;20020;-73
2024/01/01 12:27:31;;;;;;;4.03;2.72;;;9.30;88.70;;;;;;5051149;28;20025;-81
2024/01/01 12:29:58;;;;;;;5.47;3.00;;;9.30;88.50;;;;;;5051127;28;20028;-73
2024/01/01 12:32:24;;;;;;;4.47;2.50;;;9.30;88.10;;;;;;5052370;28;20367;-73
2024/01/01 12:34:54;;;;;;;5.07;2.88;;;9.30;88.30;;;;;;5052025;28;20028;-72
2024/01/01 12:37:20;;;;;;;7.15;2.42;;;9.30;88.40;;;;;;5052359;28;20458;-73
2024/01/01 12:39:46;;;;;;;5.53;2.97;;;9.30;88.10;;;;;;5051820;28;20037;-71
2024/01/01 12:42:11;;;;;;;6.30;2.20;;;9.30;88.00;;;;;;5056167;28;20024;-73
2024/01/01 12:44:37;;;;;;;6.10;3.15;;;9.30;88.00;;;;;;5061332;28;20089;-72
2024/01/01 12:47:03;;;;;;;7.70;3.20;;;9.40;88.10;;;;;;5058759;28;20029;-71
2024/01/01 12:49:34;;;;;;;4.63;2.50;;;9.40;87.30;;;;;;5063371;28;20093;-72
2024/01/01 12:52:02;;;;;;;6.30;2.60;;;9.40;87.60;;;;;;5062924;28;20061;-71
2024/01/01 12:54:28;;;;;;;4.18;2.42;;;9.40;87.40;;;;;;5062488;28;20163;-71